Time;durP1;ratioP1;P1;durP2;ratioP2;P2;SDS_P1;SDS_P2;PMS_P1;PMS_P2;Temp;Humidity;BMP_temperature;BMP_pressure;BME280_temperature;BME280_humidity;BME280_pressure;Samples;Min_cycle;Max_cycle;Signal;HPM_P1;HPM_P2
2022/01/26 00:10:19;;;;;;;;;;;1.00;99.90;;;0.07;100.00;96913.44;10464285;28;1808;-69
2022/01/26 00:15:23;;;;;;;;;;;1.00;99.90;;;0.12;100.00;96903.94;10465359;28;1943;-68
2022/01/26 00:20:32;;;;;;;;;;;1.00;99.90;;;-0.17;100.00;96907.38;10491984;28;1973;-68
2022/01/26 00:25:44;;;;;;;;;;;1.00;99.90;;;-0.18;100.00;96905.75;10474121;28;1881;-68
2022/01/26 00:41:45;;;;;;;;;;;0.50;99.90;;;-0.87;100.00;96889.91;10310615;28;1897;-68
2022/01/26 00:46:49;;;;;;;;;;;0.30;99.90;;;-0.96;100.00;96884.81;10428074;28;1892;-68
2022/01/26 00:51:54;;;;;;;;;;;0.30;99.90;;;-1.07;100.00;96898.44;10466263;28;2043;-68
2022/01/26 00:56:57;;;;;;;;;;;0.20;99.90;;;-1.21;100.00;96898.19;10467286;28;1926;-68
2022/01/26 01:02:01;;;;;;;;;;;-0.10;99.90;;;-1.19;100.00;96893.53;10462160;28;1932;-69
2022/01/26 01:07:06;;;;;;;;;;;-0.10;99.90;;;-1.07;100.00;96901.06;10460861;28;1812;-67
2022/01/26 01:12:09;;;;;;;;;;;-0.10;99.90;;;-0.97;100.00;96893.75;10461695;28;1791;-69
2022/01/26 01:17:22;;;;;;;;;;;0.00;99.90;;;-1.06;100.00;96894.78;10466176;28;1958;-68
2022/01/26 01:22:43;;;;;;;;;;;0.00;99.90;;;-1.14;100.00;96880.66;10465281;28;2187;-68
2022/01/26 01:28:12;;;;;;;;;;;-0.10;99.90;;;-1.23;100.00;96876.41;10470660;28;2031;-68
2022/01/26 01:33:19;;;;;;;;;;;-0.20;99.90;;;-1.05;100.00;96873.50;10467184;28;1889;-69
2022/01/26 01:38:26;;;;;;;;;;;-0.10;99.90;;;-1.17;100.00;96886.25;10466146;28;1927;-69
2022/01/26 01:43:29;;;;;;;;;;;0.00;99.90;;;-1.07;100.00;96893.16;10463555;28;2128;-67
2022/01/26 01:48:33;;;;;;;;;;;0.00;99.90;;;-1.09;100.00;96880.13;10459458;28;1864;-68
2022/01/26 01:53:39;;;;;;;;;;;-0.10;99.90;;;-1.08;100.00;96871.22;10464403;28;1982;-69
2022/01/26 01:58:43;;;;;;;;;;;0.60;99.90;;;-0.99;100.00;96864.06;10463608;28;1999;-69
2022/01/26 02:03:46;;;;;;;;;;;0.00;99.90;;;-1.04;100.00;96866.41;10463157;28;2045;-68
2022/01/26 02:08:50;;;;;;;;;;;0.00;99.90;;;-1.11;100.00;96872.38;10461862;28;2020;-68
2022/01/26 02:14:00;;;;;;;;;;;0.00;99.90;;;-1.10;100.00;96855.53;10464350;28;1950;-68
2022/01/26 02:19:40;;;;;;;;;;;-0.10;99.90;;;-1.13;100.00;96857.72;10456893;28;2012;-68
2022/01/26 02:56:54;;;;;;;;;;;-0.50;99.90;;;-1.49;100.00;96857.41;10502276;28;1921;-68
2022/01/26 03:02:00;;;;;;;;;;;-0.40;99.90;;;-1.51;100.00;96846.22;10494885;28;2193;-68
2022/01/26 03:07:09;;;;;;;;;;;-0.50;99.90;;;-1.52;100.00;96834.84;10473395;28;1922;-68
2022/01/26 03:12:17;;;;;;;;;;;-0.40;99.90;;;-1.55;100.00;96829.09;10467473;28;1935;-68
2022/01/26 03:17:36;;;;;;;;;;;-0.50;99.90;;;-1.71;100.00;96841.34;10472016;28;1921;-68
2022/01/26 03:28:22;;;;;;;;;;;-0.60;99.90;;;-1.72;100.00;96826.53;10356065;28;1918;-73
2022/01/26 03:33:49;;;;;;;;;;;-0.60;99.90;;;-1.66;100.00;96830.28;10449099;28;1942;-68
2022/01/26 03:38:58;;;;;;;;;;;-0.60;99.90;;;-1.74;100.00;96846.94;10469270;28;1907;-68
2022/01/26 03:44:03;;;;;;;;;;;-0.60;99.90;;;-1.77;100.00;96849.94;10489259;28;1782;-68
2022/01/26 03:49:07;;;;;;;;;;;-0.60;99.90;;;-1.85;100.00;96849.94;10489056;28;1457;-68
2022/01/26 03:54:10;;;;;;;;;;;-0.60;99.90;;;-1.98;100.00;96863.66;10483249;28;1977;-67
2022/01/26 03:59:12;;;;;;;;;;;-0.90;99.90;;;-2.08;100.00;96856.94;10467788;28;1918;-68
2022/01/26 04:04:16;;;;;;;;;;;-0.80;99.90;;;-2.06;100.00;96855.78;10472025;28;1941;-68
2022/01/26 04:09:19;;;;;;;;;;;-0.90;99.90;;;-2.03;100.00;96846.72;10468867;28;1926;-68
2022/01/26 04:14:27;;;;;;;;;;;-1.10;99.90;;;-1.95;100.00;96842.25;10470509;28;1855;-68
2022/01/26 04:19:34;;;;;;;;;;;-0.90;99.90;;;-1.96;100.00;96850.31;10461019;28;1910;-68
2022/01/26 04:24:40;;;;;;;;;;;-0.90;99.90;;;-2.09;100.00;96853.50;10472567;28;2177;-68
2022/01/26 04:29:44;;;;;;;;;;;-0.90;99.90;;;-2.04;100.00;96861.69;10467292;28;2036;-68
2022/01/26 04:34:48;;;;;;;;;;;-0.90;99.90;;;-1.96;100.00;96855.59;10471793;28;1874;-68
2022/01/26 04:39:57;;;;;;;;;;;-1.00;99.90;;;-1.82;100.00;96841.72;10475958;28;1922;-69
2022/01/26 04:45:03;;;;;;;;;;;-0.90;99.90;;;-1.76;100.00;96850.75;10479505;28;2011;-67
2022/01/26 04:50:06;;;;;;;;;;;-0.80;99.90;;;-1.74;100.00;96849.59;10470309;28;1925;-67
2022/01/26 04:55:09;;;;;;;;;;;-0.80;99.90;;;-1.82;100.00;96854.91;10463490;28;1888;-67
2022/01/26 05:00:13;;;;;;;;;;;-0.80;99.90;;;-1.86;100.00;96861.47;10468690;28;1914;-68
2022/01/26 05:05:16;;;;;;;;;;;-0.70;99.90;;;-1.68;100.00;96859.44;10470638;28;1891;-68
2022/01/26 05:10:19;;;;;;;;;;;-0.70;99.90;;;-1.75;100.00;96853.22;10466775;28;1761;-68
2022/01/26 05:15:22;;;;;;;;;;;-0.60;99.90;;;-1.69;100.00;96859.63;10481331;28;1855;-68
2022/01/26 05:20:26;;;;;;;;;;;-0.70;99.90;;;-1.53;100.00;96850.81;10481846;28;1977;-68
2022/01/26 05:25:29;;;;;;;;;;;-0.60;99.90;;;-1.47;100.00;96852.78;10468157;28;1877;-68
2022/01/26 05:30:32;;;;;;;;;;;-0.50;99.90;;;-1.43;100.00;96854.09;10478418;28;1877;-69
2022/01/26 05:35:36;;;;;;;;;;;-0.50;99.90;;;-1.34;100.00;96852.22;10494407;28;1840;-68
2022/01/26 05:40:39;;;;;;;;;;;-0.40;99.90;;;-1.34;100.00;96852.22;10496380;28;1995;-68
2022/01/26 05:45:45;;;;;;;;;;;-0.40;99.90;;;-1.52;100.00;96842.75;10490388;28;1763;-68
2022/01/26 05:50:52;;;;;;;;;;;-0.50;99.90;;;-1.58;100.00;96847.91;10471642;28;1885;-68
2022/01/26 05:55:55;;;;;;;;;;;-0.60;99.90;;;-1.56;100.00;96867.00;10479932;28;1796;-68
2022/01/26 06:00:59;;;;;;;;;;;-0.60;99.90;;;-1.56;100.00;96861.72;10483797;28;1987;-68
2022/01/26 06:06:03;;;;;;;;;;;-0.60;99.90;;;-1.73;100.00;96866.22;10489576;28;2050;-69
2022/01/26 06:11:07;;;;;;;;;;;-0.60;99.90;;;-1.79;100.00;96861.63;10476321;28;1785;-68
2022/01/26 06:16:09;;;;;;;;;;;-0.80;99.90;;;-1.75;100.00;96853.22;10484504;28;1840;-68
2022/01/26 06:21:13;;;;;;;;;;;-0.70;99.90;;;-1.77;100.00;96849.13;10478972;28;1890;-68
2022/01/26 06:26:16;;;;;;;;;;;-0.60;99.90;;;-1.94;100.00;96848.34;10477767;28;1863;-68
2022/01/26 06:31:20;;;;;;;;;;;-0.70;99.90;;;-2.11;100.00;96852.00;10467855;28;2008;-67
2022/01/26 06:36:23;;;;;;;;;;;-0.80;99.90;;;-2.24;100.00;96863.88;10470403;28;1748;-68
2022/01/26 06:41:27;;;;;;;;;;;-1.10;99.90;;;-2.32;100.00;96857.78;10462894;28;1921;-68
2022/01/26 06:46:40;;;;;;;;;;;-1.00;99.90;;;-2.53;100.00;96863.59;10491317;28;1788;-67
2022/01/26 06:51:43;;;;;;;;;;;-1.20;99.90;;;-2.59;100.00;96864.25;10478047;28;1995;-69
2022/01/26 06:56:46;;;;;;;;;;;-1.20;99.90;;;-2.60;100.00;96865.22;10480009;28;1862;-69
2022/01/26 07:01:55;;;;;;;;;;;-1.40;99.90;;;-2.61;100.00;96871.47;10477487;28;1918;-68
2022/01/26 07:06:58;;;;;;;;;;;-1.30;99.90;;;-2.55;100.00;96878.69;10467792;28;1884;-67
2022/01/26 07:12:01;;;;;;;;;;;-1.30;99.90;;;-2.52;100.00;96886.28;10471919;28;1859;-68
2022/01/26 07:22:25;;;;;;;;;;;-1.30;99.90;;;-2.50;100.00;96879.03;10482356;28;2807;-67
2022/01/26 07:27:28;;;;;;;;;;;-1.40;99.90;;;-2.43;100.00;96873.94;10472697;28;1844;-67
2022/01/26 07:32:31;;;;;;;;;;;-1.30;99.90;;;-2.42;100.00;96880.84;10468281;28;1839;-68
2022/01/26 07:37:35;;;;;;;;;;;-1.40;99.90;;;-2.37;100.00;96883.81;10462137;28;1918;-68
2022/01/26 07:42:43;;;;;;;;;;;-1.20;99.90;;;-2.41;100.00;96879.88;10464315;28;1796;-67
2022/01/26 07:47:46;;;;;;;;;;;-1.30;99.90;;;-2.43;100.00;96880.00;10467188;28;1787;-67
2022/01/26 07:52:49;;;;;;;;;;;-1.20;99.90;;;-2.40;100.00;96873.63;10469613;28;1819;-69
2022/01/26 07:57:54;;;;;;;;;;;-1.30;99.90;;;-2.40;100.00;96879.69;10467699;28;1914;-68
2022/01/26 08:02:57;;;;;;;;;;;-1.30;99.90;;;-2.34;100.00;96876.41;10474077;28;1975;-68
2022/01/26 08:08:01;;;;;;;;;;;-1.30;99.90;;;-2.21;100.00;96879.34;10474798;28;1949;-67
2022/01/26 08:13:04;;;;;;;;;;;-1.20;99.90;;;-2.09;100.00;96871.13;10476774;28;1849;-68
2022/01/26 08:18:06;;;;;;;;;;;-1.10;99.90;;;-2.17;100.00;96880.66;10473923;28;1981;-68
2022/01/26 08:23:16;;;;;;;;;;;-1.10;99.90;;;-2.04;100.00;96871.41;10473148;28;1839;-67
2022/01/26 08:28:26;;;;;;;;;;;-1.00;99.90;;;-2.02;100.00;96866.81;10470842;28;1774;-68
2022/01/26 08:33:29;;;;;;;;;;;-1.10;99.90;;;-1.90;100.00;96854.94;10473706;28;1893;-67
2022/01/26 08:38:32;;;;;;;;;;;-0.90;99.90;;;-1.72;100.00;96849.41;10468074;28;1942;-67
2022/01/26 08:43:35;;;;;;;;;;;-0.80;99.90;;;-1.56;100.00;96851.19;10472214;28;1808;-69
2022/01/26 08:48:38;;;;;;;;;;;-0.80;99.90;;;-1.44;100.00;96860.34;10465346;28;1953;-68
2022/01/26 08:53:42;;;;;;;;;;;-0.60;99.90;;;-1.43;100.00;96867.28;10468237;28;1840;-66
2022/01/26 08:58:45;;;;;;;;;;;-0.50;99.90;;;-1.40;100.00;96880.09;10476331;28;1910;-68
2022/01/26 09:03:48;;;;;;;;;;;-0.50;99.90;;;-1.50;100.00;96887.41;10474098;28;1869;-69
2022/01/26 09:09:00;;;;;;;;;;;-0.40;99.90;;;-1.38;100.00;96891.31;10472618;28;1744;-67
2022/01/26 09:14:08;;;;;;;;;;;-0.50;99.90;;;-1.32;100.00;96882.72;10477014;28;2066;-68
2022/01/26 09:19:23;;;;;;;;;;;-0.30;99.90;;;-1.08;100.00;96871.22;10476034;28;1989;-67
2022/01/26 09:24:25;;;;;;;;;;;-0.20;99.90;;;-1.00;100.00;96878.28;10482697;28;1848;-68
2022/01/26 09:29:28;;;;;;;;;;;-0.10;99.90;;;-0.86;100.00;96866.97;10478162;28;1859;-67
2022/01/26 09:34:35;;;;;;;;;;;0.00;99.90;;;-0.58;100.00;96856.69;10473239;28;1871;-67
2022/01/26 09:39:38;;;;;;;;;;;0.30;99.90;;;-0.41;100.00;96862.66;10463676;28;1975;-67
2022/01/26 09:44:41;;;;;;;;;;;0.40;99.90;;;-0.25;98.82;96851.97;10470394;28;1829;-67
2022/01/26 09:49:44;;;;;;;;;;;0.50;99.90;;;-0.03;97.67;96866.94;10471861;28;1840;-67
2022/01/26 09:54:48;;;;;;;;;;;0.80;99.90;;;0.13;96.12;96871.25;10467763;28;1887;-65
2022/01/26 10:00:01;;;;;;;;;;;0.90;99.90;;;0.20;96.74;96871.34;10465950;28;1918;-67
2022/01/26 10:05:06;;;;;;;;;;;1.10;99.90;;;0.14;96.06;96864.94;10475034;28;1821;-67
2022/01/26 10:15:32;;;;;;;;;;;1.20;99.90;;;0.12;95.93;96863.47;10468587;28;1846;-67
2022/01/26 10:20:35;;;;;;;;;;;1.10;99.90;;;0.17;95.62;96869.03;10472162;28;1969;-69
2022/01/26 10:25:38;;;;;;;;;;;1.10;99.90;;;0.37;96.03;96856.91;10466186;28;1964;-67
2022/01/26 10:30:41;;;;;;;;;;;1.20;99.90;;;0.52;94.28;96860.38;10465036;28;1835;-67
2022/01/26 10:35:44;;;;;;;;;;;1.30;99.90;;;0.51;94.26;96850.81;10467511;28;2365;-67
2022/01/26 10:40:47;;;;;;;;;;;1.40;99.90;;;0.54;94.60;96861.00;10475343;28;1911;-66
2022/01/26 10:45:57;;;;;;;;;;;1.50;99.90;;;0.75;94.30;96843.56;10479243;28;1923;-67
2022/01/26 10:56:32;;;;;;;;;;;1.60;99.90;;;0.99;92.44;96824.69;10465770;28;1819;-67
2022/01/26 11:01:35;;;;;;;;;;;1.80;99.90;;;1.07;92.71;96816.63;10484057;28;2019;-67
2022/01/26 11:06:38;;;;;;;;;;;1.90;99.90;;;1.11;92.40;96795.06;10467876;28;1827;-66
2022/01/26 11:11:41;;;;;;;;;;;2.00;99.90;;;1.22;92.92;96783.97;10469426;28;1732;-67
2022/01/26 11:16:44;;;;;;;;;;;2.10;99.90;;;1.45;90.76;96786.41;10475430;28;1946;-67
2022/01/26 11:21:47;;;;;;;;;;;2.20;99.90;;;1.54;89.69;96778.13;10478584;28;1922;-67
2022/01/26 11:26:51;;;;;;;;;;;2.40;99.90;;;1.57;88.81;96774.28;10473904;28;1761;-67
2022/01/26 11:31:54;;;;;;;;;;;2.50;99.90;;;1.67;89.26;96773.94;10479682;28;1860;-66
2022/01/26 11:36:57;;;;;;;;;;;2.60;99.90;;;1.69;88.54;96787.81;10469085;28;1771;-67
2022/01/26 11:42:31;;;;;;;;;;;2.60;99.90;;;1.68;87.60;96786.19;10473849;28;1984;-66
2022/01/26 11:47:34;;;;;;;;;;;2.70;99.90;;;1.82;87.45;96798.50;10474248;28;1944;-65
2022/01/26 11:52:39;;;;;;;;;;;2.70;99.90;;;1.53;87.56;96795.06;10478153;28;1839;-66
2022/01/26 11:57:44;;;;;;;;;;;2.60;99.90;;;1.61;88.84;96802.84;10472250;28;1797;-67
2022/01/26 12:02:54;;;;;;;;;;;2.50;99.90;;;1.70;88.60;96784.97;10473624;28;1913;-72
2022/01/26 12:07:58;;;;;;;;;;;2.60;99.90;;;1.74;88.82;96780.94;10462893;28;1879;-70
2022/01/26 12:13:02;;;;;;;;;;;2.70;99.90;;;1.88;87.43;96787.13;10489046;28;1795;-68
2022/01/26 12:18:17;;;;;;;;;;;2.90;99.90;;;2.27;87.48;96801.66;10503193;28;1851;-63
2022/01/26 12:34:30;;;;;;;;;;;3.30;99.90;;;2.03;87.67;96805.59;10476231;28;1879;-68
2022/01/26 12:44:51;;;;;;;;;;;3.20;99.90;;;2.13;87.37;96785.66;10475950;28;1867;-67
2022/01/26 12:49:54;;;;;;;;;;;3.20;99.90;;;2.25;87.54;96777.16;10477084;28;1836;-68
2022/01/26 12:54:57;;;;;;;;;;;3.30;99.90;;;2.23;88.11;96763.25;10477177;28;1847;-67
2022/01/26 13:00:00;;;;;;;;;;;3.30;99.90;;;2.14;87.97;96760.78;10467053;28;1978;-68
2022/01/26 13:05:04;;;;;;;;;;;3.20;99.90;;;2.24;88.49;96763.06;10472457;28;1871;-67
2022/01/26 13:10:07;;;;;;;;;;;3.20;99.90;;;2.24;88.68;96747.16;10470048;28;1772;-67
2022/01/26 13:15:18;;;;;;;;;;;3.30;99.90;;;2.31;88.79;96750.66;10471399;28;1812;-67
2022/01/26 13:20:33;;;;;;;;;;;3.20;99.90;;;2.41;87.91;96747.63;10467178;28;1894;-67
2022/01/26 13:25:52;;;;;;;;;;;3.30;99.90;;;2.53;85.62;96740.72;10475032;28;1804;-66
2022/01/26 13:36:37;;;;;;;;;;;3.60;99.90;;;2.64;82.94;96753.44;10518372;27;2182;-67
2022/01/26 13:41:46;;;;;;;;;;;3.60;99.90;;;2.65;83.30;96748.94;10522741;28;1859;-66
2022/01/26 13:47:09;;;;;;;;;;;3.70;99.90;;;2.59;84.59;96765.66;10512052;28;1779;-67
2022/01/26 13:58:04;;;;;;;;;;;3.60;99.90;;;2.70;84.68;96749.97;10522982;28;1845;-68
2022/01/26 14:03:10;;;;;;;;;;;3.70;99.90;;;2.72;84.47;96761.19;10530832;28;1757;-69
2022/01/26 14:08:14;;;;;;;;;;;3.70;99.90;;;2.63;83.77;96764.25;10522791;28;1758;-68
2022/01/26 14:13:22;;;;;;;;;;;3.70;99.90;;;2.58;85.95;96746.25;10518909;28;1965;-67
2022/01/26 14:18:44;;;;;;;;;;;3.70;99.90;;;2.52;86.12;96747.06;10509654;28;1780;-68
2022/01/26 14:29:13;;;;;;;;;;;3.60;99.90;;;2.61;85.73;96745.88;10494369;28;1851;-69
2022/01/26 14:40:28;;;;;;;;;;;3.60;99.90;;;2.45;87.09;96762.13;10561241;27;1916;-68
2022/01/26 14:56:14;;;;;;;;;;;3.40;99.90;;;2.07;91.95;96770.53;10556740;28;1930;-68
2022/01/26 15:34:08;;;;;;;;;;;2.40;99.90;;;1.01;100.00;96759.13;10561875;28;2117;-70
2022/01/26 15:44:50;;;;;;;;;;;2.10;99.90;;;0.63;100.00;96787.63;10558151;28;1820;-70
2022/01/26 15:49:58;;;;;;;;;;;1.80;99.90;;;0.39;100.00;96814.44;10547816;28;2156;-69
2022/01/26 16:16:58;;;;;;;;;;;0.20;99.90;;;-1.26;100.00;96862.75;10548578;28;1971;-69
2022/01/26 16:38:18;;;;;;;;;;;-0.50;99.90;;;-1.40;100.00;96853.72;10527434;28;1917;-71
2022/01/26 18:52:51;;;;;;;;;;;0.40;99.90;;;-0.47;100.00;96876.56;10480382;28;1411;-70
2022/01/26 18:57:55;;;;;;;;;;;0.40;99.90;;;-0.33;100.00;96865.22;10530233;28;1917;-70
2022/01/26 19:02:59;;;;;;;;;;;0.50;99.90;;;-0.39;100.00;96856.19;10522783;28;1516;-69
2022/01/26 19:08:02;;;;;;;;;;;0.60;99.90;;;-0.40;100.00;96851.91;10521949;28;1487;-71
2022/01/26 19:13:08;;;;;;;;;;;0.50;99.90;;;-0.40;100.00;96859.84;10525892;28;1340;-71
2022/01/26 19:18:17;;;;;;;;;;;0.50;99.90;;;-0.32;100.00;96851.84;10522503;28;1995;-69
2022/01/26 19:23:46;;;;;;;;;;;0.60;99.90;;;-0.27;100.00;96846.00;10527102;28;1231;-70
2022/01/26 19:28:58;;;;;;;;;;;0.70;99.90;;;-0.24;100.00;96827.19;10532119;28;1537;-70
2022/01/26 19:45:04;;;;;;;;;;;0.90;99.90;;;-0.13;100.00;96816.13;10533909;28;1222;-71
2022/01/26 19:55:28;;;;;;;;;;;0.90;99.90;;;-0.12;100.00;96820.44;10532420;28;1704;-71
2022/01/26 20:00:31;;;;;;;;;;;0.90;99.90;;;-0.23;100.00;96818.25;10531348;28;1905;-71
2022/01/26 20:05:35;;;;;;;;;;;0.90;99.90;;;-0.21;100.00;96800.38;10531568;28;1488;-70
2022/01/26 20:10:43;;;;;;;;;;;0.80;99.90;;;-0.27;100.00;96819.59;10527070;28;1920;-70
2022/01/26 20:15:46;;;;;;;;;;;0.70;99.90;;;-0.22;100.00;96814.59;10530585;28;2034;-72
2022/01/26 20:20:49;;;;;;;;;;;0.70;99.90;;;-0.09;100.00;96820.06;10546523;28;2029;-70
2022/01/26 20:25:53;;;;;;;;;;;0.90;99.90;;;-0.03;100.00;96831.75;10525528;28;1834;-72
2022/01/26 20:30:58;;;;;;;;;;;0.90;99.90;;;-0.38;100.00;96828.78;10532671;28;2003;-72
2022/01/26 20:36:04;;;;;;;;;;;0.80;99.90;;;-0.25;100.00;96814.97;10536790;28;1901;-72
2022/01/26 20:41:07;;;;;;;;;;;0.80;99.90;;;-0.24;100.00;96816.59;10536730;28;1975;-71
2022/01/26 20:46:11;;;;;;;;;;;0.80;99.90;;;-0.18;100.00;96799.22;10540693;28;1835;-71
2022/01/26 20:51:14;;;;;;;;;;;0.80;99.90;;;-0.03;100.00;96808.78;10535896;28;1910;-71
2022/01/26 20:56:17;;;;;;;;;;;0.90;99.90;;;-0.16;100.00;96808.59;10537089;28;1963;-71
2022/01/26 21:01:20;;;;;;;;;;;0.80;99.90;;;-0.24;100.00;96806.03;10559764;27;1876;-72
2022/01/26 21:06:23;;;;;;;;;;;0.70;99.90;;;-0.20;100.00;96802.00;10528372;28;2030;-72
2022/01/26 21:11:26;;;;;;;;;;;0.80;99.90;;;-0.12;100.00;96801.94;10525965;28;1839;-71
2022/01/26 21:16:30;;;;;;;;;;;0.80;99.90;;;-0.07;100.00;96812.78;10538414;28;1912;-73
2022/01/26 21:21:34;;;;;;;;;;;0.80;99.90;;;-0.14;100.00;96817.16;10569568;28;1792;-73
2022/01/26 21:26:37;;;;;;;;;;;0.90;99.90;;;-0.17;100.00;96817.53;10575274;28;1823;-72
2022/01/26 21:31:40;;;;;;;;;;;0.80;99.90;;;-0.11;100.00;96819.44;10579163;28;1835;-71
2022/01/26 21:36:44;;;;;;;;;;;0.70;99.90;;;-0.17;100.00;96808.78;10579835;28;1952;-73
2022/01/26 21:41:48;;;;;;;;;;;0.80;99.90;;;-0.12;100.00;96798.50;10571567;28;1866;-72
2022/01/26 21:46:51;;;;;;;;;;;0.80;99.90;;;-0.12;100.00;96803.78;10573097;28;2219;-71
2022/01/26 21:51:54;;;;;;;;;;;0.90;99.90;;;-0.14;100.00;96806.56;10574023;28;1771;-72
2022/01/26 21:56:58;;;;;;;;;;;0.80;99.90;;;-0.03;100.00;96802.66;10550470;28;1938;-71
2022/01/26 22:02:01;;;;;;;;;;;0.90;99.90;;;-0.12;100.00;96799.31;10532120;28;1894;-69
2022/01/26 22:07:05;;;;;;;;;;;0.90;99.90;;;-0.09;100.00;96788.34;10530071;28;1717;-70
2022/01/26 22:12:08;;;;;;;;;;;0.90;99.90;;;-0.01;100.00;96779.50;10542188;28;1958;-69
2022/01/26 22:17:12;;;;;;;;;;;0.90;99.90;;;-0.23;100.00;96783.06;10564373;28;1975;-69
2022/01/26 22:22:15;;;;;;;;;;;0.90;99.90;;;-0.36;100.00;96773.13;10558777;28;2229;-70
2022/01/26 22:27:23;;;;;;;;;;;0.70;99.90;;;-0.38;100.00;96757.47;10533722;28;1815;-70
2022/01/26 22:32:27;;;;;;;;;;;0.60;99.90;;;-0.34;100.00;96755.25;10526634;28;1862;-70
2022/01/26 22:37:30;;;;;;;;;;;0.60;99.90;;;-0.55;100.00;96743.59;10523120;28;1936;-71
2022/01/26 22:42:33;;;;;;;;;;;0.50;99.90;;;-0.41;100.00;96747.25;10521654;28;1974;-69
2022/01/26 22:47:36;;;;;;;;;;;0.60;99.90;;;-0.26;100.00;96749.88;10524812;28;2054;-71
2022/01/26 22:52:39;;;;;;;;;;;0.60;99.90;;;-0.38;100.00;96746.06;10523443;28;1811;-69
2022/01/26 22:57:42;;;;;;;;;;;0.60;99.90;;;-0.35;100.00;96761.56;10527528;28;2113;-71
2022/01/26 23:02:51;;;;;;;;;;;0.60;99.90;;;-0.47;100.00;96755.06;10535636;28;1807;-71
2022/01/26 23:08:15;;;;;;;;;;;0.60;99.90;;;-0.52;100.00;96757.44;10531069;28;1847;-70
2022/01/26 23:13:18;;;;;;;;;;;0.40;99.90;;;-0.45;100.00;96745.94;10544104;28;1872;-71
2022/01/26 23:18:22;;;;;;;;;;;0.50;99.90;;;-0.50;100.00;96768.66;10546466;28;2016;-71
2022/01/26 23:23:27;;;;;;;;;;;0.50;99.90;;;-0.63;100.00;96762.16;10550700;28;1925;-71
2022/01/26 23:29:02;;;;;;;;;;;0.40;99.90;;;-0.60;100.00;96753.88;10553380;28;1999;-70
2022/01/26 23:34:25;;;;;;;;;;;0.40;99.90;;;-0.66;100.00;96740.56;10561250;28;1922;-70
